sensor_id;sensor_type;location;lat;lon;timestamp;temperature;humidity
34877;DHT22;21086;44.780;17.194;2023-08-06T00:02:07;18.60;1.00
34877;DHT22;21086;44.780;17.194;2023-08-06T00:04:34;18.60;1.00
34877;DHT22;21086;44.780;17.194;2023-08-06T00:07:01;18.50;1.00
34877;DHT22;21086;44.780;17.194;2023-08-06T00:09:28;18.40;1.00
34877;DHT22;21086;44.780;17.194;2023-08-06T00:11:56;18.40;1.00
34877;DHT22;21086;44.780;17.194;2023-08-06T00:14:23;18.40;1.00
34877;DHT22;21086;44.780;17.194;2023-08-06T00:16:50;18.50;1.00
34877;DHT22;21086;44.780;17.194;2023-08-06T00:19:18;18.50;1.00
34877;DHT22;21086;44.780;17.194;2023-08-06T00:21:45;18.40;1.00
34877;DHT22;21086;44.780;17.194;2023-08-06T00:24:12;18.40;1.00
34877;DHT22;21086;44.780;17.194;2023-08-06T00:26:39;18.30;1.00
34877;DHT22;21086;44.780;17.194;2023-08-06T00:29:06;18.30;1.00
34877;DHT22;21086;44.780;17.194;2023-08-06T00:31:33;18.20;1.00
34877;DHT22;21086;44.780;17.194;2023-08-06T00:34:01;18.20;1.00
34877;DHT22;21086;44.780;17.194;2023-08-06T00:36:27;18.20;1.00
34877;DHT22;21086;44.780;17.194;2023-08-06T00:38:54;18.20;1.00
34877;DHT22;21086;44.780;17.194;2023-08-06T00:41:22;18.20;1.00
34877;DHT22;21086;44.780;17.194;2023-08-06T00:43:49;18.20;1.00
34877;DHT22;21086;44.780;17.194;2023-08-06T00:46:16;18.10;1.00
34877;DHT22;21086;44.780;17.194;2023-08-06T00:48:43;18.10;1.00
34877;DHT22;21086;44.780;17.194;2023-08-06T00:51:11;18.10;1.00
34877;DHT22;21086;44.780;17.194;2023-08-06T00:53:39;18.10;1.00
34877;DHT22;21086;44.780;17.194;2023-08-06T00:56:07;18.10;1.00
34877;DHT22;21086;44.780;17.194;2023-08-06T00:58:35;18.10;1.00
34877;DHT22;21086;44.780;17.194;2023-08-06T01:01:02;18.10;1.00
34877;DHT22;21086;44.780;17.194;2023-08-06T01:03:29;18.20;1.00
34877;DHT22;21086;44.780;17.194;2023-08-06T01:05:57;18.10;1.00
34877;DHT22;21086;44.780;17.194;2023-08-06T01:11:17;18.20;1.00
34877;DHT22;21086;44.780;17.194;2023-08-06T01:13:50;18.20;1.00
34877;DHT22;21086;44.780;17.194;2023-08-06T01:16:21;18.20;1.00
34877;DHT22;21086;44.780;17.194;2023-08-06T01:18:50;18.20;1.00
34877;DHT22;21086;44.780;17.194;2023-08-06T01:21:17;18.20;1.00
34877;DHT22;21086;44.780;17.194;2023-08-06T01:23:45;18.20;1.00
34877;DHT22;21086;44.780;17.194;2023-08-06T01:26:26;18.20;1.00
34877;DHT22;21086;44.780;17.194;2023-08-06T01:29:18;18.30;1.00
34877;DHT22;21086;44.780;17.194;2023-08-06T01:31:48;18.50;1.00
34877;DHT22;21086;44.780;17.194;2023-08-06T01:34:21;18.50;1.00
34877;DHT22;21086;44.780;17.194;2023-08-06T01:36:48;18.50;1.00
34877;DHT22;21086;44.780;17.194;2023-08-06T01:39:16;18.60;1.00
34877;DHT22;21086;44.780;17.194;2023-08-06T01:41:48;18.60;1.00
34877;DHT22;21086;44.780;17.194;2023-08-06T01:44:15;18.70;1.00
34877;DHT22;21086;44.780;17.194;2023-08-06T01:46:42;18.70;1.00
34877;DHT22;21086;44.780;17.194;2023-08-06T01:49:10;18.90;1.00
34877;DHT22;21086;44.780;17.194;2023-08-06T01:51:37;18.90;1.00
34877;DHT22;21086;44.780;17.194;2023-08-06T01:54:04;18.80;1.00
34877;DHT22;21086;44.780;17.194;2023-08-06T01:56:31;18.80;1.00
34877;DHT22;21086;44.780;17.194;2023-08-06T01:58:58;18.70;1.00
34877;DHT22;21086;44.780;17.194;2023-08-06T02:01:29;18.60;1.00
34877;DHT22;21086;44.780;17.194;2023-08-06T02:03:56;18.60;1.00
34877;DHT22;21086;44.780;17.194;2023-08-06T02:06:23;18.60;1.00
34877;DHT22;21086;44.780;17.194;2023-08-06T02:08:50;18.60;1.00
34877;DHT22;21086;44.780;17.194;2023-08-06T02:11:17;18.50;1.00
34877;DHT22;21086;44.780;17.194;2023-08-06T02:13:46;18.60;1.00
34877;DHT22;21086;44.780;17.194;2023-08-06T02:16:13;18.60;1.00
34877;DHT22;21086;44.780;17.194;2023-08-06T02:18:41;18.60;1.00
34877;DHT22;21086;44.780;17.194;2023-08-06T02:21:07;18.50;1.00
34877;DHT22;21086;44.780;17.194;2023-08-06T02:23:34;18.40;1.00
34877;DHT22;21086;44.780;17.194;2023-08-06T02:26:03;18.50;1.00
34877;DHT22;21086;44.780;17.194;2023-08-06T02:28:31;18.50;1.00
34877;DHT22;21086;44.780;17.194;2023-08-06T02:30:58;18.50;1.00
34877;DHT22;21086;44.780;17.194;2023-08-06T02:33:25;18.50;1.00
34877;DHT22;21086;44.780;17.194;2023-08-06T02:36:02;18.50;1.00
34877;DHT22;21086;44.780;17.194;2023-08-06T02:38:34;18.40;1.00
34877;DHT22;21086;44.780;17.194;2023-08-06T02:41:03;18.30;1.00
34877;DHT22;21086;44.780;17.194;2023-08-06T02:43:31;18.40;1.00
34877;DHT22;21086;44.780;17.194;2023-08-06T02:45:59;18.40;1.00
34877;DHT22;21086;44.780;17.194;2023-08-06T02:48:27;18.30;1.00
34877;DHT22;21086;44.780;17.194;2023-08-06T02:50:57;18.20;1.00
34877;DHT22;21086;44.780;17.194;2023-08-06T02:53:25;18.20;1.00
34877;DHT22;21086;44.780;17.194;2023-08-06T02:55:53;18.20;1.00
34877;DHT22;21086;44.780;17.194;2023-08-06T02:58:20;18.20;1.00
34877;DHT22;21086;44.780;17.194;2023-08-06T03:01:04;18.20;1.00
34877;DHT22;21086;44.780;17.194;2023-08-06T03:03:32;18.20;1.00
34877;DHT22;21086;44.780;17.194;2023-08-06T03:06:00;18.20;1.00
34877;DHT22;21086;44.780;17.194;2023-08-06T03:08:27;18.10;1.00
34877;DHT22;21086;44.780;17.194;2023-08-06T03:10:54;18.10;1.00
34877;DHT22;21086;44.780;17.194;2023-08-06T03:13:21;18.00;1.00
34877;DHT22;21086;44.780;17.194;2023-08-06T03:15:59;18.00;1.00
34877;DHT22;21086;44.780;17.194;2023-08-06T03:18:27;18.00;1.00
34877;DHT22;21086;44.780;17.194;2023-08-06T03:20:54;18.00;1.00
34877;DHT22;21086;44.780;17.194;2023-08-06T03:23:22;18.00;1.00
34877;DHT22;21086;44.780;17.194;2023-08-06T03:25:49;18.00;1.00
34877;DHT22;21086;44.780;17.194;2023-08-06T03:28:16;18.00;1.00
34877;DHT22;21086;44.780;17.194;2023-08-06T03:30:44;18.00;1.00
34877;DHT22;21086;44.780;17.194;2023-08-06T03:33:11;18.00;1.00
34877;DHT22;21086;44.780;17.194;2023-08-06T03:35:38;18.10;1.00
34877;DHT22;21086;44.780;17.194;2023-08-06T03:38:05;18.00;1.00
34877;DHT22;21086;44.780;17.194;2023-08-06T03:40:35;18.00;1.00
34877;DHT22;21086;44.780;17.194;2023-08-06T03:43:01;17.90;1.00
34877;DHT22;21086;44.780;17.194;2023-08-06T03:45:28;17.80;1.00
34877;DHT22;21086;44.780;17.194;2023-08-06T03:47:55;18.00;1.00
34877;DHT22;21086;44.780;17.194;2023-08-06T03:50:22;18.00;1.00
34877;DHT22;21086;44.780;17.194;2023-08-06T03:52:50;17.90;1.00
34877;DHT22;21086;44.780;17.194;2023-08-06T03:55:17;18.00;1.00
34877;DHT22;21086;44.780;17.194;2023-08-06T03:57:44;18.00;1.00
34877;DHT22;21086;44.780;17.194;2023-08-06T04:00:11;18.00;1.00
34877;DHT22;21086;44.780;17.194;2023-08-06T04:02:39;18.10;1.00
34877;DHT22;21086;44.780;17.194;2023-08-06T04:05:06;18.20;1.00
34877;DHT22;21086;44.780;17.194;2023-08-06T04:07:34;18.20;1.00
34877;DHT22;21086;44.780;17.194;2023-08-06T04:10:02;18.40;1.00
34877;DHT22;21086;44.780;17.194;2023-08-06T04:12:30;18.40;1.00
34877;DHT22;21086;44.780;17.194;2023-08-06T04:14:58;18.40;1.00
34877;DHT22;21086;44.780;17.194;2023-08-06T04:17:25;18.50;1.00
34877;DHT22;21086;44.780;17.194;2023-08-06T04:19:53;18.60;1.00
34877;DHT22;21086;44.780;17.194;2023-08-06T04:22:21;18.70;1.00
34877;DHT22;21086;44.780;17.194;2023-08-06T04:24:48;18.90;1.00
34877;DHT22;21086;44.780;17.194;2023-08-06T04:27:16;18.90;1.00
34877;DHT22;21086;44.780;17.194;2023-08-06T04:29:43;18.90;1.00
34877;DHT22;21086;44.780;17.194;2023-08-06T04:32:12;19.10;1.00
34877;DHT22;21086;44.780;17.194;2023-08-06T04:34:39;19.20;1.00
34877;DHT22;21086;44.780;17.194;2023-08-06T04:37:06;19.20;1.00
34877;DHT22;21086;44.780;17.194;2023-08-06T04:39:33;19.40;1.00
34877;DHT22;21086;44.780;17.194;2023-08-06T04:42:00;19.50;1.00
34877;DHT22;21086;44.780;17.194;2023-08-06T04:44:27;19.50;1.00
34877;DHT22;21086;44.780;17.194;2023-08-06T04:46:54;19.40;1.00
34877;DHT22;21086;44.780;17.194;2023-08-06T04:49:21;19.70;1.00
34877;DHT22;21086;44.780;17.194;2023-08-06T04:51:48;19.70;1.00
34877;DHT22;21086;44.780;17.194;2023-08-06T04:54:16;19.80;1.00
34877;DHT22;21086;44.780;17.194;2023-08-06T04:56:43;19.60;1.00
34877;DHT22;21086;44.780;17.194;2023-08-06T04:59:10;19.60;1.00
34877;DHT22;21086;44.780;17.194;2023-08-06T05:01:37;19.50;1.00
34877;DHT22;21086;44.780;17.194;2023-08-06T05:04:04;19.60;1.00
34877;DHT22;21086;44.780;17.194;2023-08-06T05:06:31;19.60;1.00
34877;DHT22;21086;44.780;17.194;2023-08-06T05:08:58;19.50;99.90
34877;DHT22;21086;44.780;17.194;2023-08-06T05:11:25;19.30;99.90
34877;DHT22;21086;44.780;17.194;2023-08-06T05:13:52;19.40;99.90
34877;DHT22;21086;44.780;17.194;2023-08-06T05:16:19;19.30;99.90
34877;DHT22;21086;44.780;17.194;2023-08-06T05:18:46;19.40;99.90
34877;DHT22;21086;44.780;17.194;2023-08-06T05:21:13;19.40;99.90
34877;DHT22;21086;44.780;17.194;2023-08-06T05:23:40;19.30;99.90
34877;DHT22;21086;44.780;17.194;2023-08-06T05:26:07;19.20;99.90
34877;DHT22;21086;44.780;17.194;2023-08-06T05:28:35;19.20;99.90
34877;DHT22;21086;44.780;17.194;2023-08-06T05:31:05;19.20;99.90
34877;DHT22;21086;44.780;17.194;2023-08-06T05:33:32;19.30;99.90
34877;DHT22;21086;44.780;17.194;2023-08-06T05:35:59;19.20;99.90
34877;DHT22;21086;44.780;17.194;2023-08-06T05:38:27;19.40;99.90
34877;DHT22;21086;44.780;17.194;2023-08-06T05:40:54;19.30;99.90
34877;DHT22;21086;44.780;17.194;2023-08-06T05:43:24;19.50;99.90
34877;DHT22;21086;44.780;17.194;2023-08-06T05:51:10;19.70;99.90
34877;DHT22;21086;44.780;17.194;2023-08-06T05:53:39;20.00;99.90
34877;DHT22;21086;44.780;17.194;2023-08-06T05:56:06;19.90;99.90
34877;DHT22;21086;44.780;17.194;2023-08-06T05:58:33;20.00;99.90
34877;DHT22;21086;44.780;17.194;2023-08-06T06:01:02;20.00;99.90
34877;DHT22;21086;44.780;17.194;2023-08-06T06:03:30;19.90;99.90
34877;DHT22;21086;44.780;17.194;2023-08-06T06:05:57;20.00;99.90
34877;DHT22;21086;44.780;17.194;2023-08-06T06:08:24;20.20;99.90
34877;DHT22;21086;44.780;17.194;2023-08-06T06:10:51;20.10;99.90
34877;DHT22;21086;44.780;17.194;2023-08-06T06:13:19;19.60;99.90
34877;DHT22;21086;44.780;17.194;2023-08-06T06:15:48;20.10;99.90
34877;DHT22;21086;44.780;17.194;2023-08-06T06:18:19;20.40;99.90
34877;DHT22;21086;44.780;17.194;2023-08-06T06:20:50;20.20;99.90
34877;DHT22;21086;44.780;17.194;2023-08-06T06:23:18;19.90;99.90
34877;DHT22;21086;44.780;17.194;2023-08-06T06:25:49;19.90;99.90
34877;DHT22;21086;44.780;17.194;2023-08-06T06:28:20;19.90;99.90
34877;DHT22;21086;44.780;17.194;2023-08-06T06:30:49;20.10;99.90
34877;DHT22;21086;44.780;17.194;2023-08-06T06:33:17;20.60;99.90
34877;DHT22;21086;44.780;17.194;2023-08-06T06:35:44;20.80;99.90
34877;DHT22;21086;44.780;17.194;2023-08-06T06:38:11;20.90;99.90
34877;DHT22;21086;44.780;17.194;2023-08-06T06:40:38;21.10;99.90
34877;DHT22;21086;44.780;17.194;2023-08-06T06:43:05;21.20;99.90
34877;DHT22;21086;44.780;17.194;2023-08-06T06:45:32;21.40;99.90
34877;DHT22;21086;44.780;17.194;2023-08-06T06:47:59;21.20;99.90
34877;DHT22;21086;44.780;17.194;2023-08-06T06:50:27;21.30;99.90
34877;DHT22;21086;44.780;17.194;2023-08-06T06:52:54;21.20;99.90
34877;DHT22;21086;44.780;17.194;2023-08-06T06:55:22;21.20;99.90
34877;DHT22;21086;44.780;17.194;2023-08-06T06:57:50;21.40;99.90
34877;DHT22;21086;44.780;17.194;2023-08-06T07:00:17;21.50;99.90
34877;DHT22;21086;44.780;17.194;2023-08-06T07:02:45;21.70;99.90
34877;DHT22;21086;44.780;17.194;2023-08-06T07:05:12;21.90;99.90
34877;DHT22;21086;44.780;17.194;2023-08-06T07:07:39;21.80;99.90
34877;DHT22;21086;44.780;17.194;2023-08-06T07:10:07;21.50;99.90
34877;DHT22;21086;44.780;17.194;2023-08-06T07:12:34;21.20;99.90
34877;DHT22;21086;44.780;17.194;2023-08-06T07:15:07;21.00;99.90
34877;DHT22;21086;44.780;17.194;2023-08-06T07:17:34;20.90;99.90
34877;DHT22;21086;44.780;17.194;2023-08-06T07:20:01;21.20;99.90
34877;DHT22;21086;44.780;17.194;2023-08-06T07:22:28;21.40;99.90
34877;DHT22;21086;44.780;17.194;2023-08-06T07:24:56;21.70;99.90
34877;DHT22;21086;44.780;17.194;2023-08-06T07:27:23;22.00;99.90
34877;DHT22;21086;44.780;17.194;2023-08-06T07:29:51;22.10;99.90
34877;DHT22;21086;44.780;17.194;2023-08-06T07:32:17;22.40;99.90
34877;DHT22;21086;44.780;17.194;2023-08-06T07:34:45;22.60;99.90
34877;DHT22;21086;44.780;17.194;2023-08-06T07:37:12;22.70;99.90
34877;DHT22;21086;44.780;17.194;2023-08-06T07:39:39;22.60;99.90
34877;DHT22;21086;44.780;17.194;2023-08-06T07:42:10;22.40;99.90
34877;DHT22;21086;44.780;17.194;2023-08-06T07:44:37;21.80;99.90
34877;DHT22;21086;44.780;17.194;2023-08-06T07:47:06;21.90;99.90
34877;DHT22;21086;44.780;17.194;2023-08-06T07:49:33;22.10;99.90
34877;DHT22;21086;44.780;17.194;2023-08-06T07:52:01;22.10;99.90
34877;DHT22;21086;44.780;17.194;2023-08-06T07:54:28;22.10;99.90
34877;DHT22;21086;44.780;17.194;2023-08-06T07:56:55;22.10;99.90
34877;DHT22;21086;44.780;17.194;2023-08-06T07:59:22;21.90;99.90
34877;DHT22;21086;44.780;17.194;2023-08-06T08:01:49;21.80;99.90
34877;DHT22;21086;44.780;17.194;2023-08-06T08:04:16;21.80;99.90
34877;DHT22;21086;44.780;17.194;2023-08-06T08:06:43;22.00;99.90
34877;DHT22;21086;44.780;17.194;2023-08-06T08:09:10;21.50;99.90
34877;DHT22;21086;44.780;17.194;2023-08-06T08:11:37;21.30;99.90
34877;DHT22;21086;44.780;17.194;2023-08-06T08:14:05;21.30;99.90
34877;DHT22;21086;44.780;17.194;2023-08-06T08:16:32;20.80;99.90
34877;DHT22;21086;44.780;17.194;2023-08-06T08:19:01;20.80;99.90
34877;DHT22;21086;44.780;17.194;2023-08-06T08:21:30;20.80;99.90
34877;DHT22;21086;44.780;17.194;2023-08-06T08:24:00;20.60;99.90
34877;DHT22;21086;44.780;17.194;2023-08-06T08:26:27;20.70;99.90
34877;DHT22;21086;44.780;17.194;2023-08-06T08:28:54;20.50;99.90
34877;DHT22;21086;44.780;17.194;2023-08-06T08:31:21;20.50;99.90
34877;DHT22;21086;44.780;17.194;2023-08-06T08:33:49;20.60;99.90
34877;DHT22;21086;44.780;17.194;2023-08-06T08:36:19;20.60;99.90
34877;DHT22;21086;44.780;17.194;2023-08-06T08:38:46;20.60;99.90
34877;DHT22;21086;44.780;17.194;2023-08-06T08:41:15;20.70;99.90
34877;DHT22;21086;44.780;17.194;2023-08-06T08:43:43;20.40;99.90
34877;DHT22;21086;44.780;17.194;2023-08-06T08:46:11;20.50;99.90
34877;DHT22;21086;44.780;17.194;2023-08-06T08:48:38;20.40;99.90
34877;DHT22;21086;44.780;17.194;2023-08-06T08:51:06;20.30;99.90
34877;DHT22;21086;44.780;17.194;2023-08-06T08:53:35;19.80;99.90
34877;DHT22;21086;44.780;17.194;2023-08-06T08:56:06;19.70;99.90
34877;DHT22;21086;44.780;17.194;2023-08-06T08:58:33;19.40;99.90
34877;DHT22;21086;44.780;17.194;2023-08-06T09:01:00;19.30;99.90
34877;DHT22;21086;44.780;17.194;2023-08-06T09:03:28;19.40;99.90
34877;DHT22;21086;44.780;17.194;2023-08-06T09:05:55;19.60;99.90
34877;DHT22;21086;44.780;17.194;2023-08-06T09:08:27;19.90;99.90
34877;DHT22;21086;44.780;17.194;2023-08-06T09:10:58;19.80;99.90
34877;DHT22;21086;44.780;17.194;2023-08-06T09:13:26;19.70;99.90
34877;DHT22;21086;44.780;17.194;2023-08-06T09:15:54;19.90;99.90
34877;DHT22;21086;44.780;17.194;2023-08-06T09:18:26;19.80;99.90
34877;DHT22;21086;44.780;17.194;2023-08-06T09:20:57;19.90;99.90
34877;DHT22;21086;44.780;17.194;2023-08-06T09:23:31;20.10;99.90
34877;DHT22;21086;44.780;17.194;2023-08-06T09:26:00;20.30;99.90
34877;DHT22;21086;44.780;17.194;2023-08-06T09:28:38;20.50;99.90
34877;DHT22;21086;44.780;17.194;2023-08-06T09:31:07;20.50;99.90
34877;DHT22;21086;44.780;17.194;2023-08-06T09:33:36;20.70;99.90
34877;DHT22;21086;44.780;17.194;2023-08-06T09:36:10;20.40;99.90
34877;DHT22;21086;44.780;17.194;2023-08-06T09:38:39;20.10;99.90
34877;DHT22;21086;44.780;17.194;2023-08-06T09:41:07;19.40;99.90
34877;DHT22;21086;44.780;17.194;2023-08-06T09:43:43;19.20;99.90
34877;DHT22;21086;44.780;17.194;2023-08-06T09:46:13;19.30;99.90
34877;DHT22;21086;44.780;17.194;2023-08-06T09:48:50;19.20;99.90
34877;DHT22;21086;44.780;17.194;2023-08-06T09:51:17;18.70;99.90
34877;DHT22;21086;44.780;17.194;2023-08-06T09:53:46;18.60;99.90
34877;DHT22;21086;44.780;17.194;2023-08-06T09:56:15;18.70;99.90
34877;DHT22;21086;44.780;17.194;2023-08-06T09:58:44;18.60;99.90
34877;DHT22;21086;44.780;17.194;2023-08-06T10:01:14;18.50;99.90
34877;DHT22;21086;44.780;17.194;2023-08-06T10:03:42;18.90;99.90
34877;DHT22;21086;44.780;17.194;2023-08-06T10:06:10;19.10;99.90
34877;DHT22;21086;44.780;17.194;2023-08-06T10:08:37;19.00;99.90
34877;DHT22;21086;44.780;17.194;2023-08-06T10:11:04;18.80;99.90
34877;DHT22;21086;44.780;17.194;2023-08-06T10:13:33;19.00;99.90
34877;DHT22;21086;44.780;17.194;2023-08-06T10:16:03;18.90;99.90
34877;DHT22;21086;44.780;17.194;2023-08-06T10:18:32;19.10;99.90
34877;DHT22;21086;44.780;17.194;2023-08-06T10:21:01;19.00;99.90
34877;DHT22;21086;44.780;17.194;2023-08-06T10:23:35;18.90;99.90
34877;DHT22;21086;44.780;17.194;2023-08-06T10:26:04;18.80;99.90
34877;DHT22;21086;44.780;17.194;2023-08-06T10:28:36;19.00;99.90
34877;DHT22;21086;44.780;17.194;2023-08-06T10:31:05;19.30;99.90
34877;DHT22;21086;44.780;17.194;2023-08-06T10:33:44;19.60;99.90
34877;DHT22;21086;44.780;17.194;2023-08-06T10:36:12;19.90;99.90
34877;DHT22;21086;44.780;17.194;2023-08-06T10:38:50;20.10;99.90
34877;DHT22;21086;44.780;17.194;2023-08-06T10:41:29;20.50;99.90
34877;DHT22;21086;44.780;17.194;2023-08-06T10:44:06;20.70;99.90
34877;DHT22;21086;44.780;17.194;2023-08-06T10:46:35;20.20;99.90
34877;DHT22;21086;44.780;17.194;2023-08-06T10:49:04;19.90;99.90
34877;DHT22;21086;44.780;17.194;2023-08-06T10:51:31;20.00;99.90
34877;DHT22;21086;44.780;17.194;2023-08-06T10:53:58;19.80;99.90
34877;DHT22;21086;44.780;17.194;2023-08-06T10:56:26;19.90;99.90
34877;DHT22;21086;44.780;17.194;2023-08-06T10:58:55;20.00;99.90
34877;DHT22;21086;44.780;17.194;2023-08-06T11:01:24;20.60;99.90
34877;DHT22;21086;44.780;17.194;2023-08-06T11:03:56;21.20;99.90
34877;DHT22;21086;44.780;17.194;2023-08-06T11:06:28;21.50;99.90
34877;DHT22;21086;44.780;17.194;2023-08-06T11:08:55;21.90;99.90
34877;DHT22;21086;44.780;17.194;2023-08-06T11:11:23;22.10;99.90
34877;DHT22;21086;44.780;17.194;2023-08-06T11:13:51;22.20;99.90
34877;DHT22;21086;44.780;17.194;2023-08-06T11:16:21;22.20;99.90
34877;DHT22;21086;44.780;17.194;2023-08-06T11:18:50;22.20;99.90
34877;DHT22;21086;44.780;17.194;2023-08-06T11:21:21;21.90;99.90
34877;DHT22;21086;44.780;17.194;2023-08-06T11:23:48;21.80;99.90
34877;DHT22;21086;44.780;17.194;2023-08-06T11:26:19;21.70;99.90
34877;DHT22;21086;44.780;17.194;2023-08-06T11:28:47;21.80;99.90
34877;DHT22;21086;44.780;17.194;2023-08-06T11:31:21;21.70;99.90
34877;DHT22;21086;44.780;17.194;2023-08-06T11:33:52;21.40;99.90
34877;DHT22;21086;44.780;17.194;2023-08-06T11:36:34;21.20;99.90
34877;DHT22;21086;44.780;17.194;2023-08-06T11:39:03;21.00;99.90
34877;DHT22;21086;44.780;17.194;2023-08-06T11:41:34;21.10;99.90
34877;DHT22;21086;44.780;17.194;2023-08-06T11:44:05;20.30;99.90
34877;DHT22;21086;44.780;17.194;2023-08-06T11:46:55;20.30;99.90
34877;DHT22;21086;44.780;17.194;2023-08-06T11:49:48;19.50;99.90
34877;DHT22;21086;44.780;17.194;2023-08-06T11:52:21;19.30;99.90
34877;DHT22;21086;44.780;17.194;2023-08-06T11:55:06;19.60;99.90
34877;DHT22;21086;44.780;17.194;2023-08-06T11:57:35;20.00;99.90
34877;DHT22;21086;44.780;17.194;2023-08-06T12:00:07;20.30;99.90
34877;DHT22;21086;44.780;17.194;2023-08-06T12:02:35;20.60;99.90
34877;DHT22;21086;44.780;17.194;2023-08-06T12:05:16;20.80;99.90
34877;DHT22;21086;44.780;17.194;2023-08-06T12:07:48;20.90;99.90
34877;DHT22;21086;44.780;17.194;2023-08-06T12:10:16;20.30;99.90
34877;DHT22;21086;44.780;17.194;2023-08-06T12:12:43;20.50;99.90
34877;DHT22;21086;44.780;17.194;2023-08-06T12:15:10;20.30;99.90
34877;DHT22;21086;44.780;17.194;2023-08-06T12:17:38;20.60;99.90
34877;DHT22;21086;44.780;17.194;2023-08-06T12:20:06;21.00;99.90
34877;DHT22;21086;44.780;17.194;2023-08-06T12:22:34;20.90;99.90
34877;DHT22;21086;44.780;17.194;2023-08-06T12:25:03;21.00;99.90
34877;DHT22;21086;44.780;17.194;2023-08-06T12:30:06;19.30;99.90
34877;DHT22;21086;44.780;17.194;2023-08-06T12:32:33;20.40;99.90
34877;DHT22;21086;44.780;17.194;2023-08-06T12:35:01;20.70;99.90
34877;DHT22;21086;44.780;17.194;2023-08-06T12:37:29;20.90;99.90
34877;DHT22;21086;44.780;17.194;2023-08-06T12:39:56;21.50;99.90
34877;DHT22;21086;44.780;17.194;2023-08-06T12:42:23;21.70;99.90
34877;DHT22;21086;44.780;17.194;2023-08-06T12:44:51;22.10;99.90
34877;DHT22;21086;44.780;17.194;2023-08-06T12:47:18;22.30;99.90
34877;DHT22;21086;44.780;17.194;2023-08-06T12:49:46;22.30;99.90
34877;DHT22;21086;44.780;17.194;2023-08-06T12:52:14;22.30;99.90
34877;DHT22;21086;44.780;17.194;2023-08-06T12:54:42;22.40;99.90
34877;DHT22;21086;44.780;17.194;2023-08-06T12:57:09;22.30;99.90
34877;DHT22;21086;44.780;17.194;2023-08-06T12:59:36;22.00;99.90
34877;DHT22;21086;44.780;17.194;2023-08-06T13:02:04;21.60;99.90
34877;DHT22;21086;44.780;17.194;2023-08-06T13:04:31;21.30;99.90
34877;DHT22;21086;44.780;17.194;2023-08-06T13:06:59;21.10;99.90
34877;DHT22;21086;44.780;17.194;2023-08-06T13:09:26;21.00;99.90
34877;DHT22;21086;44.780;17.194;2023-08-06T13:11:57;20.80;99.90
34877;DHT22;21086;44.780;17.194;2023-08-06T13:14:26;20.80;99.90
34877;DHT22;21086;44.780;17.194;2023-08-06T13:16:55;20.90;99.90
34877;DHT22;21086;44.780;17.194;2023-08-06T13:19:23;20.70;99.90
34877;DHT22;21086;44.780;17.194;2023-08-06T13:24:17;20.80;99.90
34877;DHT22;21086;44.780;17.194;2023-08-06T13:26:45;20.80;99.90
34877;DHT22;21086;44.780;17.194;2023-08-06T13:29:12;20.50;99.90
34877;DHT22;21086;44.780;17.194;2023-08-06T13:31:39;20.70;99.90
34877;DHT22;21086;44.780;17.194;2023-08-06T13:34:06;21.00;99.90
34877;DHT22;21086;44.780;17.194;2023-08-06T13:36:33;20.80;99.90
34877;DHT22;21086;44.780;17.194;2023-08-06T13:39:00;20.70;99.90
34877;DHT22;21086;44.780;17.194;2023-08-06T13:41:28;20.80;99.90
34877;DHT22;21086;44.780;17.194;2023-08-06T13:43:55;20.90;99.90
34877;DHT22;21086;44.780;17.194;2023-08-06T13:46:21;21.20;99.90
34877;DHT22;21086;44.780;17.194;2023-08-06T13:48:49;21.40;99.90
34877;DHT22;21086;44.780;17.194;2023-08-06T13:51:18;21.50;99.90
34877;DHT22;21086;44.780;17.194;2023-08-06T13:53:45;21.50;99.90
34877;DHT22;21086;44.780;17.194;2023-08-06T13:56:12;21.60;99.90
34877;DHT22;21086;44.780;17.194;2023-08-06T13:58:42;22.00;99.90
34877;DHT22;21086;44.780;17.194;2023-08-06T14:01:10;22.40;99.90
34877;DHT22;21086;44.780;17.194;2023-08-06T14:03:37;22.70;99.90
34877;DHT22;21086;44.780;17.194;2023-08-06T14:06:06;22.90;99.90
34877;DHT22;21086;44.780;17.194;2023-08-06T14:08:33;22.90;99.90
34877;DHT22;21086;44.780;17.194;2023-08-06T14:11:01;22.70;99.90
34877;DHT22;21086;44.780;17.194;2023-08-06T14:13:28;22.60;99.90
34877;DHT22;21086;44.780;17.194;2023-08-06T14:15:55;22.50;99.90
34877;DHT22;21086;44.780;17.194;2023-08-06T14:18:25;22.80;99.90
34877;DHT22;21086;44.780;17.194;2023-08-06T14:20:52;23.30;99.90
34877;DHT22;21086;44.780;17.194;2023-08-06T14:23:19;23.40;99.90
34877;DHT22;21086;44.780;17.194;2023-08-06T14:25:47;23.30;99.90
34877;DHT22;21086;44.780;17.194;2023-08-06T14:28:14;23.40;99.90
34877;DHT22;21086;44.780;17.194;2023-08-06T14:30:41;24.70;99.90
34877;DHT22;21086;44.780;17.194;2023-08-06T14:33:08;25.20;99.90
34877;DHT22;21086;44.780;17.194;2023-08-06T14:35:53;24.80;99.90
34877;DHT22;21086;44.780;17.194;2023-08-06T14:38:20;24.70;99.90
34877;DHT22;21086;44.780;17.194;2023-08-06T14:40:47;25.10;99.90
34877;DHT22;21086;44.780;17.194;2023-08-06T14:43:14;25.80;99.90
34877;DHT22;21086;44.780;17.194;2023-08-06T14:45:41;25.80;99.90
34877;DHT22;21086;44.780;17.194;2023-08-06T14:48:08;25.70;99.90
34877;DHT22;21086;44.780;17.194;2023-08-06T14:50:35;28.00;99.90
34877;DHT22;21086;44.780;17.194;2023-08-06T14:53:03;32.00;99.90
34877;DHT22;21086;44.780;17.194;2023-08-06T14:55:32;31.70;99.90
34877;DHT22;21086;44.780;17.194;2023-08-06T14:58:01;32.20;99.90
34877;DHT22;21086;44.780;17.194;2023-08-06T15:00:28;33.30;99.90
34877;DHT22;21086;44.780;17.194;2023-08-06T15:02:55;32.30;99.90
34877;DHT22;21086;44.780;17.194;2023-08-06T15:05:24;31.60;99.90
34877;DHT22;21086;44.780;17.194;2023-08-06T15:07:51;29.40;99.90
34877;DHT22;21086;44.780;17.194;2023-08-06T15:10:20;28.40;99.90
34877;DHT22;21086;44.780;17.194;2023-08-06T15:12:50;27.90;99.90
34877;DHT22;21086;44.780;17.194;2023-08-06T15:15:17;28.40;99.90
34877;DHT22;21086;44.780;17.194;2023-08-06T15:17:44;31.30;99.90
34877;DHT22;21086;44.780;17.194;2023-08-06T15:20:12;35.60;99.90
34877;DHT22;21086;44.780;17.194;2023-08-06T15:22:39;37.90;99.90
34877;DHT22;21086;44.780;17.194;2023-08-06T15:25:07;40.00;99.90
34877;DHT22;21086;44.780;17.194;2023-08-06T15:27:34;40.30;99.90
34877;DHT22;21086;44.780;17.194;2023-08-06T15:30:03;39.50;99.90
34877;DHT22;21086;44.780;17.194;2023-08-06T15:32:30;37.30;99.90
34877;DHT22;21086;44.780;17.194;2023-08-06T15:34:57;33.80;99.90
34877;DHT22;21086;44.780;17.194;2023-08-06T15:37:25;33.70;99.90
34877;DHT22;21086;44.780;17.194;2023-08-06T15:39:52;35.70;99.90
34877;DHT22;21086;44.780;17.194;2023-08-06T15:42:20;37.50;99.90